Rose Hill, Texas
Current Conditions -  °F | °C
As of 5:53 PM on Sunday 23 Nov 2014 (Local Time) from KDWH Reporting Station
Clear Clear  
Wind Chill: 23°   Ceiling: Unl
Heat Index: 23°   Visibility: 10mi
Dew Point: 10°   Wind: 8mph
Humidity: 44%   Direction: 220°SW
Pressure: 29.56"   Gusts: NA
Location:  30.0721°N, 95.6453°W
Report Text: KDWH 232353Z AUTO 22007KT 10SM CLR 23/10 A2956 RMK AO2 SLP009 T02280100 10267 20228 53013 TSNO
Loading
Personal Weather Stations






























Interactive Weather Map New forecast layout! Learn more

10-Day Weather Forecast

Advertisements
Track Severe Weather on mobile